Alta, Iowa
Current Conditions -  °F | °C
As of 12:15 PM on Sunday 25 Jan 2015 (Local Time) from KSLB Reporting Station
Overcast Overcast  
Wind Chill: 20°   Ceiling: 500
Heat Index: 30°   Visibility: 10mi
Dew Point: 30°   Wind: 14mph
Humidity: 100%   Direction: 10°N
Pressure: 29.98"   Gusts: 20mph
Location:  42.67°N, 95.29°W
Report Text: KSLB 251815Z AUTO 01012G17KT 10SM OVC005 M01/M01 A2998 RMK AO2
Loading
Personal Weather Stations






























Interactive Weather Map New forecast layout! Learn more

10-Day Weather Forecast

Advertisements
Track Severe Weather on mobile